createdAt,value
2023-03-19T00:00:28.295Z,100386.00
2023-03-19T00:02:55.242Z,100387.72
2023-03-19T00:05:22.642Z,100389.91
2023-03-19T00:07:49.322Z,100391.56
2023-03-19T00:10:16.099Z,100382.22
2023-03-19T00:12:42.989Z,100385.75
2023-03-19T00:15:14.791Z,100389.50
2023-03-19T00:17:44.690Z,100385.16
2023-03-19T00:20:12.992Z,100384.66
2023-03-19T00:22:40.485Z,100392.78
2023-03-19T00:25:08.681Z,100392.81
2023-03-19T00:27:37.397Z,100389.59
2023-03-19T00:30:06.567Z,100397.66
2023-03-19T00:32:34.155Z,100390.44
2023-03-19T00:35:01.339Z,100405.84
2023-03-19T00:37:28.610Z,100405.66
2023-03-19T00:39:56.292Z,100397.78
2023-03-19T00:42:23.469Z,100398.03
2023-03-19T00:44:51.138Z,100398.78
2023-03-19T00:47:18.161Z,100401.69
2023-03-19T00:49:45.499Z,100400.34
2023-03-19T00:52:12.286Z,100410.06
2023-03-19T00:54:40.690Z,100406.13
2023-03-19T00:57:08.558Z,100401.59
2023-03-19T00:59:35.552Z,100401.59
2023-03-19T01:02:03.011Z,100401.59
2023-03-19T01:04:29.758Z,100398.09
2023-03-19T01:09:26.782Z,100403.69
2023-03-19T01:11:53.905Z,100398.25
2023-03-19T01:14:21.331Z,100407.06
2023-03-19T01:16:48.514Z,100409.47
2023-03-19T01:19:16.541Z,100406.03
2023-03-19T01:21:46.466Z,100405.84
2023-03-19T01:24:17.495Z,100406.16
2023-03-19T01:26:46.452Z,100414.00
2023-03-19T01:29:26.025Z,100410.19
2023-03-19T01:31:54.861Z,100402.63
2023-03-19T01:34:47.047Z,100401.63
2023-03-19T01:37:17.639Z,100407.59
2023-03-19T01:39:45.546Z,100406.06
2023-03-19T01:42:14.877Z,100410.34
2023-03-19T01:44:51.327Z,100409.75
2023-03-19T01:47:41.892Z,100415.59
2023-03-19T01:50:44.313Z,100401.00
2023-03-19T01:53:36.814Z,100408.03
2023-03-19T01:56:27.562Z,100404.28
2023-03-19T01:59:33.260Z,100405.34
2023-03-19T02:02:31.223Z,100418.84
2023-03-19T02:05:12.404Z,100409.19
2023-03-19T02:07:42.701Z,100411.66
2023-03-19T02:10:21.173Z,100414.63
2023-03-19T02:12:49.274Z,100411.94
2023-03-19T02:15:16.806Z,100421.63
2023-03-19T02:17:52.667Z,100428.13
2023-03-19T02:20:35.704Z,100422.50
2023-03-19T02:23:17.629Z,100427.59
2023-03-19T02:25:47.998Z,100435.13
2023-03-19T02:28:19.341Z,100425.44
2023-03-19T02:30:49.067Z,100432.97
2023-03-19T02:33:20.888Z,100424.91
2023-03-19T02:35:55.612Z,100424.34
2023-03-19T02:38:28.369Z,100426.50
2023-03-19T02:41:04.828Z,100422.22
2023-03-19T02:43:34.433Z,100429.72
2023-03-19T02:46:03.458Z,100429.41
2023-03-19T02:48:31.800Z,100428.03
2023-03-19T02:50:59.981Z,100437.75
2023-03-19T02:53:27.446Z,100433.94
2023-03-19T02:55:57.934Z,100435.56
2023-03-19T02:58:32.773Z,100437.75
2023-03-19T03:01:07.598Z,100440.13
2023-03-19T03:03:38.028Z,100442.81
2023-03-19T03:06:16.951Z,100446.34
2023-03-19T03:08:44.833Z,100447.69
2023-03-19T03:11:12.137Z,100440.47
2023-03-19T03:13:42.229Z,100440.78
2023-03-19T03:16:10.102Z,100444.31
2023-03-19T03:18:37.851Z,100438.94
2023-03-19T03:21:05.238Z,100442.44
2023-03-19T03:23:33.159Z,100441.09
2023-03-19T03:26:00.208Z,100458.78
2023-03-19T03:28:30.175Z,100453.41
2023-03-19T03:31:09.752Z,100452.88
2023-03-19T03:33:42.964Z,100454.25
2023-03-19T03:36:10.830Z,100457.47
2023-03-19T03:38:41.438Z,100451.25
2023-03-19T03:41:13.866Z,100458.75
2023-03-19T03:43:41.217Z,100463.59
2023-03-19T03:46:08.831Z,100458.75
2023-03-19T03:48:36.558Z,100458.75
2023-03-19T03:51:04.529Z,100460.91
2023-03-19T03:53:33.156Z,100462.06
2023-03-19T03:56:02.662Z,100464.50
2023-03-19T03:58:34.733Z,100461.56
2023-03-19T04:01:02.030Z,100452.69
2023-03-19T04:03:31.976Z,100459.97
2023-03-19T04:05:58.957Z,100462.66
2023-03-19T04:08:26.593Z,100464.28
2023-03-19T04:10:53.647Z,100464.81
2023-03-19T04:13:21.036Z,100466.41
2023-03-19T04:15:48.680Z,100461.00
2023-03-19T04:18:16.620Z,100466.94
2023-03-19T04:20:43.603Z,100480.34
2023-03-19T04:23:11.165Z,100482.25
2023-03-19T04:25:41.667Z,100474.72
2023-03-19T04:28:12.518Z,100482.25
2023-03-19T04:30:39.685Z,100482.78
2023-03-19T04:33:07.320Z,100485.72
2023-03-19T04:35:34.376Z,100483.56
2023-03-19T04:38:01.529Z,100487.38
2023-03-19T04:40:28.834Z,100485.72
2023-03-19T04:42:56.448Z,100488.47
2023-03-19T04:45:32.352Z,100495.72
2023-03-19T04:48:00.142Z,100496.00
2023-03-19T04:50:28.216Z,100498.44
2023-03-19T04:52:56.137Z,100504.09
2023-03-19T04:55:24.723Z,100498.16
2023-03-19T04:58:01.367Z,100504.09
2023-03-19T05:00:30.899Z,100502.47
2023-03-19T05:03:02.022Z,100511.63
2023-03-19T05:05:31.504Z,100503.31
2023-03-19T05:08:02.162Z,100500.84
2023-03-19T05:10:34.309Z,100497.63
2023-03-19T05:13:02.317Z,100504.91
2023-03-19T05:15:30.492Z,100504.09
2023-03-19T05:18:02.052Z,100499.78
2023-03-19T05:20:38.093Z,100501.94
2023-03-19T05:23:12.096Z,100507.84
2023-03-19T05:25:47.781Z,100503.56
2023-03-19T05:28:20.537Z,100509.47
2023-03-19T05:30:52.603Z,100514.06
2023-03-19T05:33:28.024Z,100506.25
2023-03-19T05:35:57.806Z,100515.94
2023-03-19T05:38:34.823Z,100506.25
2023-03-19T05:41:08.227Z,100507.31
2023-03-19T05:43:54.371Z,100515.38
2023-03-19T05:46:42.348Z,100524.50
2023-03-19T05:49:10.664Z,100513.22
2023-03-19T05:51:40.578Z,100526.41
2023-03-19T05:54:10.565Z,100535.81
2023-03-19T05:56:58.038Z,100530.97
2023-03-19T05:59:57.992Z,100532.06
2023-03-19T06:02:39.459Z,100532.59
2023-03-19T06:05:26.417Z,100529.09
2023-03-19T06:07:57.666Z,100541.22
2023-03-19T06:10:35.947Z,100539.03
2023-03-19T06:13:07.803Z,100541.75
2023-03-19T06:15:58.266Z,100537.97
2023-03-19T06:18:32.323Z,100538.53
2023-03-19T06:21:03.818Z,100540.13
2023-03-19T06:23:31.127Z,100547.13
2023-03-19T06:25:59.893Z,100548.19
2023-03-19T06:28:30.835Z,100543.34
2023-03-19T06:30:57.945Z,100553.03
2023-03-19T06:33:47.875Z,100557.84
2023-03-19T06:36:15.342Z,100551.41
2023-03-19T06:38:43.011Z,100554.63
2023-03-19T06:41:16.613Z,100558.66
2023-03-19T06:43:44.105Z,100561.91
2023-03-19T06:46:11.927Z,100558.41
2023-03-19T06:48:39.094Z,100565.97
2023-03-19T06:51:07.028Z,100561.06
2023-03-19T06:53:35.021Z,100559.19
2023-03-19T06:56:01.935Z,100571.34
2023-03-19T06:58:28.761Z,100575.63
2023-03-19T07:00:56.963Z,100576.69
2023-03-19T07:03:24.498Z,100573.13
2023-03-19T07:05:52.871Z,100577.13
2023-03-19T07:08:20.220Z,100579.78
2023-03-19T07:10:47.232Z,100572.47
2023-03-19T07:13:14.655Z,100576.97
2023-03-19T07:15:44.968Z,100577.94
2023-03-19T07:18:12.542Z,100589.16
2023-03-19T07:20:39.607Z,100590.72
2023-03-19T07:23:09.724Z,100595.31
2023-03-19T07:25:39.410Z,100597.72
2023-03-19T07:28:07.165Z,100593.53
2023-03-19T07:30:38.661Z,100598.34
2023-03-19T07:33:08.112Z,100595.94
2023-03-19T07:35:35.788Z,100601.63
2023-03-19T07:38:02.971Z,100601.66
2023-03-19T07:40:30.230Z,100593.06
2023-03-19T07:42:58.918Z,100603.31
2023-03-19T07:45:26.030Z,100606.81
2023-03-19T07:47:53.426Z,100609.81
2023-03-19T07:50:20.734Z,100607.63
2023-03-19T07:52:48.359Z,100601.19
2023-03-19T07:55:18.601Z,100599.06
2023-03-19T07:57:45.573Z,100596.91
2023-03-19T08:00:13.135Z,100592.84
2023-03-19T08:02:40.618Z,100592.25
2023-03-19T08:05:08.084Z,100593.25
2023-03-19T08:07:35.373Z,100592.00
2023-03-19T08:10:04.102Z,100589.94
2023-03-19T08:12:32.238Z,100593.72
2023-03-19T08:14:59.442Z,100589.16
2023-03-19T08:17:27.807Z,100590.72
2023-03-19T08:19:55.100Z,100592.69
2023-03-19T08:22:22.140Z,100587.75
2023-03-19T08:24:48.859Z,100586.94
2023-03-19T08:27:16.101Z,100590.97
2023-03-19T08:29:43.276Z,100591.28
2023-03-19T08:32:10.333Z,100585.13
2023-03-19T08:34:37.333Z,100594.94
2023-03-19T08:37:04.596Z,100598.22
2023-03-19T08:39:31.722Z,100593.53
2023-03-19T08:41:58.536Z,100600.19
2023-03-19T08:44:26.012Z,100600.38
2023-03-19T08:46:53.333Z,100604.38
2023-03-19T08:49:20.252Z,100603.75
2023-03-19T08:51:47.214Z,100601.09
2023-03-19T08:54:14.440Z,100603.31
2023-03-19T08:56:41.736Z,100599.88
2023-03-19T08:59:08.871Z,100598.59
2023-03-19T09:01:36.810Z,100600.56
2023-03-19T09:04:04.181Z,100600.06
2023-03-19T09:06:31.300Z,100606.66
2023-03-19T09:08:58.203Z,100604.25
2023-03-19T09:11:25.065Z,100606.13
2023-03-19T09:13:52.206Z,100607.63
2023-03-19T09:16:19.157Z,100610.25
2023-03-19T09:18:46.242Z,100602.66
2023-03-19T09:21:13.270Z,100602.81
2023-03-19T09:23:40.521Z,100604.50
2023-03-19T09:26:09.980Z,100612.59
2023-03-19T09:28:38.149Z,100610.13
2023-03-19T09:31:07.508Z,100607.81
2023-03-19T09:33:34.399Z,100609.06
2023-03-19T09:36:05.293Z,100613.88
2023-03-19T09:38:32.507Z,100616.34
2023-03-19T09:41:11.633Z,100611.81
2023-03-19T09:44:13.106Z,100611.59
2023-03-19T09:47:03.308Z,100611.75
2023-03-19T09:49:34.074Z,100611.00
2023-03-19T09:52:20.500Z,100613.16
2023-03-19T09:54:53.272Z,100617.34
2023-03-19T09:57:20.993Z,100611.13
2023-03-19T09:59:48.381Z,100615.53
2023-03-19T10:02:33.233Z,100615.41
2023-03-19T10:05:18.738Z,100601.63
2023-03-19T10:08:17.222Z,100599.84
2023-03-19T10:11:29.754Z,100588.06
2023-03-19T10:14:36.186Z,100585.59
2023-03-19T10:17:07.399Z,100586.19
2023-03-19T10:19:43.648Z,100580.75
2023-03-19T10:22:22.443Z,100581.44
2023-03-19T10:24:50.782Z,100579.72
2023-03-19T10:27:20.590Z,100577.59
2023-03-19T10:29:51.279Z,100571.00
2023-03-19T10:32:21.323Z,100566.41
2023-03-19T10:34:51.039Z,100566.59
2023-03-19T10:37:22.320Z,100568.03
2023-03-19T10:39:51.517Z,100565.38
2023-03-19T10:42:46.956Z,100563.16
2023-03-19T10:45:38.957Z,100556.16
2023-03-19T10:48:12.177Z,100550.56
2023-03-19T10:50:46.053Z,100556.56
2023-03-19T10:53:15.776Z,100555.13
2023-03-19T10:56:07.592Z,100555.72
2023-03-19T10:58:38.202Z,100559.13
2023-03-19T11:01:11.206Z,100540.75
2023-03-19T11:03:51.047Z,100550.81
2023-03-19T11:06:18.389Z,100556.91
2023-03-19T11:08:59.072Z,100560.41
2023-03-19T11:11:58.093Z,100552.47
2023-03-19T11:14:32.145Z,100559.69
2023-03-19T11:17:07.144Z,100562.09
2023-03-19T11:19:41.224Z,100559.50
2023-03-19T11:22:23.020Z,100553.72
2023-03-19T11:24:54.394Z,100550.59
2023-03-19T11:27:35.060Z,100555.72
2023-03-19T11:30:13.057Z,100555.38
2023-03-19T11:32:58.391Z,100564.34
2023-03-19T11:35:51.024Z,100558.59
2023-03-19T11:38:42.386Z,100561.75
2023-03-19T11:41:18.607Z,100552.84
2023-03-19T11:44:31.625Z,100552.19
2023-03-19T11:47:26.233Z,100551.22
2023-03-19T11:50:05.864Z,100551.53
2023-03-19T11:52:48.860Z,100546.47
2023-03-19T11:55:28.117Z,100554.81
2023-03-19T11:58:30.758Z,100549.13
2023-03-19T12:01:02.140Z,100546.63
2023-03-19T12:03:48.470Z,100548.16
2023-03-19T12:06:57.265Z,100544.78
2023-03-19T12:09:27.224Z,100548.13
2023-03-19T12:12:07.753Z,100547.31
2023-03-19T12:15:08.756Z,100546.25
2023-03-19T12:17:59.429Z,100547.34
2023-03-19T12:20:55.919Z,100559.84
2023-03-19T12:23:58.047Z,100555.84
2023-03-19T12:27:15.894Z,100551.84
2023-03-19T12:30:14.864Z,100550.22
2023-03-19T12:33:07.644Z,100557.69
2023-03-19T12:35:36.800Z,100555.94
2023-03-19T12:38:18.007Z,100553.47
2023-03-19T12:40:50.444Z,100562.56
2023-03-19T12:43:25.576Z,100556.34
2023-03-19T12:46:03.533Z,100559.56
2023-03-19T12:48:44.599Z,100564.63
2023-03-19T12:51:16.072Z,100561.66
2023-03-19T12:54:06.193Z,100564.16
2023-03-19T12:56:49.636Z,100567.56
2023-03-19T12:59:51.903Z,100575.47
2023-03-19T13:02:52.183Z,100571.53
2023-03-19T13:05:36.434Z,100578.91
2023-03-19T13:08:51.291Z,100578.97
2023-03-19T13:11:28.655Z,100579.66
2023-03-19T13:14:02.214Z,100590.22
2023-03-19T13:16:57.145Z,100590.56
2023-03-19T13:19:42.987Z,100599.38
2023-03-19T13:22:42.898Z,100599.78
2023-03-19T13:29:56.773Z,100600.34
2023-03-19T13:32:27.416Z,100611.31
2023-03-19T13:35:39.878Z,100607.19
2023-03-19T13:38:36.996Z,100612.41
2023-03-19T13:41:04.536Z,100612.22
2023-03-19T13:43:37.405Z,100610.59
2023-03-19T13:46:13.465Z,100613.38
2023-03-19T13:48:46.343Z,100614.81
2023-03-19T13:51:12.911Z,100610.41
2023-03-19T13:53:54.670Z,100606.59
2023-03-19T13:56:29.868Z,100608.41
2023-03-19T13:59:15.599Z,100607.69
2023-03-19T14:01:47.427Z,100614.78
2023-03-19T14:04:19.787Z,100615.91
2023-03-19T14:06:59.210Z,100615.06
2023-03-19T14:09:45.859Z,100616.09
2023-03-19T14:12:16.153Z,100611.84
2023-03-19T14:14:57.210Z,100613.97
2023-03-19T14:17:51.707Z,100613.38
2023-03-19T14:20:24.036Z,100614.47
2023-03-19T14:22:58.312Z,100614.88
2023-03-19T14:25:30.941Z,100606.59
2023-03-19T14:28:02.235Z,100594.78
2023-03-19T14:30:45.521Z,100598.66
2023-03-19T14:33:26.503Z,100591.75
2023-03-19T14:35:53.893Z,100587.38
2023-03-19T14:38:32.352Z,100597.53
2023-03-19T14:41:02.457Z,100597.72
2023-03-19T14:43:41.770Z,100588.31
2023-03-19T14:46:37.618Z,100597.72
2023-03-19T14:49:44.424Z,100587.03
2023-03-19T14:52:25.489Z,100583.22
2023-03-19T14:55:03.336Z,100578.09
2023-03-19T14:57:33.302Z,100585.50
2023-03-19T15:00:03.038Z,100584.91
2023-03-19T15:02:40.351Z,100581.69
2023-03-19T15:05:09.872Z,100576.69
2023-03-19T15:07:44.310Z,100585.31
2023-03-19T15:10:19.004Z,100578.56
2023-03-19T15:13:01.333Z,100570.72
2023-03-19T15:15:37.923Z,100570.75
2023-03-19T15:18:09.843Z,100570.44
2023-03-19T15:20:48.402Z,100567.97
2023-03-19T15:23:27.444Z,100572.19
2023-03-19T15:25:58.211Z,100575.13
2023-03-19T15:28:28.215Z,100569.31
2023-03-19T15:31:12.523Z,100576.06
2023-03-19T15:33:46.444Z,100571.31
2023-03-19T15:36:27.597Z,100576.50
2023-03-19T15:39:10.941Z,100567.19
2023-03-19T15:41:44.618Z,100576.47
2023-03-19T15:44:18.648Z,100578.22
2023-03-19T15:46:47.109Z,100574.41
2023-03-19T15:49:21.161Z,100573.97
2023-03-19T15:51:53.371Z,100576.66
2023-03-19T15:54:21.342Z,100576.94
2023-03-19T15:56:53.216Z,100582.28
2023-03-19T15:59:25.092Z,100574.97
2023-03-19T16:01:51.908Z,100572.38
2023-03-19T16:04:23.383Z,100579.06
2023-03-19T16:06:52.346Z,100577.41
2023-03-19T16:09:48.622Z,100576.47
2023-03-19T16:12:41.417Z,100583.44
2023-03-19T16:15:34.051Z,100585.81
2023-03-19T16:18:19.436Z,100592.84
2023-03-19T16:21:07.660Z,100587.66
2023-03-19T16:23:45.914Z,100593.31
2023-03-19T16:26:18.644Z,100591.06
2023-03-19T16:28:52.408Z,100593.75
2023-03-19T16:31:22.384Z,100596.75
2023-03-19T16:33:53.329Z,100608.38
2023-03-19T16:36:20.935Z,100613.91
2023-03-19T16:39:16.455Z,100609.06
2023-03-19T16:41:45.994Z,100614.69
2023-03-19T16:44:17.176Z,100621.69
2023-03-19T16:46:44.972Z,100617.72
2023-03-19T16:49:11.607Z,100622.59
2023-03-19T16:51:39.354Z,100619.66
2023-03-19T16:54:06.474Z,100620.41
2023-03-19T16:56:33.661Z,100635.00
2023-03-19T16:59:03.393Z,100630.19
2023-03-19T17:01:31.153Z,100632.38
2023-03-19T17:03:58.938Z,100638.91
2023-03-19T17:06:29.450Z,100638.47
2023-03-19T17:08:56.119Z,100642.41
2023-03-19T17:11:27.760Z,100646.31
2023-03-19T17:14:06.379Z,100648.75
2023-03-19T17:16:33.975Z,100656.06
2023-03-19T17:19:01.147Z,100655.50
2023-03-19T17:21:31.500Z,100658.16
2023-03-19T17:24:02.318Z,100663.31
2023-03-19T17:26:29.241Z,100665.56
2023-03-19T17:28:57.017Z,100673.97
2023-03-19T17:31:25.477Z,100677.72
2023-03-19T17:33:57.026Z,100681.88
2023-03-19T17:36:23.813Z,100685.00
2023-03-19T17:38:50.640Z,100679.53
2023-03-19T17:41:19.956Z,100683.28
2023-03-19T17:43:47.878Z,100689.47
2023-03-19T17:46:23.562Z,100682.41
2023-03-19T17:48:51.390Z,100688.34
2023-03-19T17:51:18.999Z,100696.28
2023-03-19T17:53:51.515Z,100697.66
2023-03-19T17:56:21.413Z,100699.34
2023-03-19T17:58:50.444Z,100707.22
2023-03-19T18:01:23.517Z,100709.53
2023-03-19T18:03:52.084Z,100706.88
2023-03-19T18:06:21.090Z,100714.47
2023-03-19T18:08:49.079Z,100715.06
2023-03-19T18:11:16.292Z,100731.56
2023-03-19T18:13:44.044Z,100723.25
2023-03-19T18:16:25.722Z,100727.34
2023-03-19T18:18:52.927Z,100737.41
2023-03-19T18:21:19.777Z,100741.72
2023-03-19T18:23:46.914Z,100736.56
2023-03-19T18:26:14.287Z,100742.25
2023-03-19T18:28:41.300Z,100747.44
2023-03-19T18:31:23.030Z,100753.13
2023-03-19T18:33:56.960Z,100748.31
2023-03-19T18:36:27.995Z,100742.91
2023-03-19T18:38:55.531Z,100745.34
2023-03-19T18:41:24.747Z,100749.16
2023-03-19T18:44:06.634Z,100744.03
2023-03-19T18:46:39.097Z,100744.03
2023-03-19T18:49:15.343Z,100746.75
2023-03-19T18:51:58.765Z,100745.13
2023-03-19T18:54:28.143Z,100759.19
2023-03-19T18:56:57.285Z,100762.44
2023-03-19T18:59:32.180Z,100754.34
2023-03-19T19:02:00.952Z,100755.72
2023-03-19T19:04:30.471Z,100760.28
2023-03-19T19:06:57.341Z,100760.03
2023-03-19T19:09:27.653Z,100766.22
2023-03-19T19:12:01.013Z,100763.53
2023-03-19T19:14:28.211Z,100763.00
2023-03-19T19:16:59.177Z,100772.69
2023-03-19T19:19:29.346Z,100768.38
2023-03-19T19:21:56.349Z,100776.97
2023-03-19T19:24:23.147Z,100775.91
2023-03-19T19:26:54.129Z,100782.09
2023-03-19T19:29:27.025Z,100780.75
2023-03-19T19:31:54.517Z,100791.19
2023-03-19T19:34:22.804Z,100790.94
2023-03-19T19:36:51.091Z,100786.06
2023-03-19T19:39:19.860Z,100792.50
2023-03-19T19:41:48.187Z,100803.81
2023-03-19T19:44:20.282Z,100800.56
2023-03-19T19:46:47.271Z,100806.22
2023-03-19T19:49:18.718Z,100811.34
2023-03-19T19:51:45.562Z,100806.47
2023-03-19T19:54:12.579Z,100809.13
2023-03-19T19:56:40.683Z,100811.81
2023-03-19T19:59:08.167Z,100820.44
2023-03-19T20:01:35.234Z,100822.03
2023-03-19T20:04:04.062Z,100829.06
2023-03-19T20:06:31.023Z,100831.75
2023-03-19T20:08:57.713Z,100832.25
2023-03-19T20:11:25.641Z,100834.94
2023-03-19T20:13:54.801Z,100833.84
2023-03-19T20:16:24.077Z,100845.09
2023-03-19T20:18:53.775Z,100853.94
2023-03-19T20:21:21.257Z,100859.59
2023-03-19T20:23:53.470Z,100860.63
2023-03-19T20:26:23.854Z,100867.63
2023-03-19T20:28:51.571Z,100861.16
2023-03-19T20:31:26.449Z,100872.72
2023-03-19T20:33:53.200Z,100867.09
2023-03-19T20:36:19.925Z,100874.59
2023-03-19T20:38:46.639Z,100881.56
2023-03-19T20:41:23.046Z,100883.47
2023-03-19T20:43:50.913Z,100884.81
2023-03-19T20:46:20.493Z,100894.50
2023-03-19T20:48:48.384Z,100893.66
2023-03-19T20:51:21.708Z,100892.25
2023-03-19T20:53:52.496Z,100892.75
2023-03-19T20:56:22.616Z,100900.81
2023-03-19T20:58:49.657Z,100899.19
2023-03-19T21:01:17.794Z,100902.94
2023-03-19T21:03:44.726Z,100898.09
2023-03-19T21:06:18.097Z,100898.09
2023-03-19T21:08:49.172Z,100901.09
2023-03-19T21:11:24.528Z,100906.97
2023-03-19T21:13:53.148Z,100903.97
2023-03-19T21:16:25.566Z,100914.22
2023-03-19T21:18:53.992Z,100908.31
2023-03-19T21:21:35.719Z,100909.41
2023-03-19T21:24:13.295Z,100915.25
2023-03-19T21:26:42.590Z,100913.03
2023-03-19T21:29:19.414Z,100918.09
2023-03-19T21:31:50.561Z,100917.34
2023-03-19T21:34:17.887Z,100924.38
2023-03-19T21:36:44.839Z,100918.19
2023-03-19T21:39:12.022Z,100926.78
2023-03-19T21:41:41.320Z,100916.78
2023-03-19T21:44:16.279Z,100919.41
2023-03-19T21:46:46.926Z,100918.31
2023-03-19T21:49:14.657Z,100930.63
2023-03-19T21:51:43.912Z,100934.41
2023-03-19T21:54:11.431Z,100934.94
2023-03-19T21:56:42.901Z,100932.06
2023-03-19T21:59:18.942Z,100940.19
2023-03-19T22:01:46.565Z,100939.97
2023-03-19T22:04:13.335Z,100945.19
2023-03-19T22:06:40.408Z,100949.81
2023-03-19T22:09:07.461Z,100950.16
2023-03-19T22:11:36.638Z,100952.66
2023-03-19T22:14:11.188Z,100949.16
2023-03-19T22:16:38.288Z,100952.97
2023-03-19T22:19:05.597Z,100958.63
2023-03-19T22:21:33.954Z,100956.44
2023-03-19T22:24:00.757Z,100959.31
2023-03-19T22:26:27.602Z,100955.81
2023-03-19T22:28:56.083Z,100952.59
2023-03-19T22:31:23.771Z,100951.00
2023-03-19T22:33:50.745Z,100956.44
2023-03-19T22:36:17.773Z,100955.38
2023-03-19T22:38:45.028Z,100954.06
2023-03-19T22:41:17.417Z,100964.03
2023-03-19T22:43:46.367Z,100950.06
2023-03-19T22:46:16.983Z,100951.16
2023-03-19T22:48:47.900Z,100953.31
2023-03-19T22:51:17.354Z,100954.88
2023-03-19T22:53:44.656Z,100952.75
2023-03-19T22:56:12.418Z,100951.69
2023-03-19T22:58:39.036Z,100953.84
2023-03-19T23:01:21.262Z,100946.00
2023-03-19T23:03:50.156Z,100945.47
2023-03-19T23:06:30.656Z,100937.94
2023-03-19T23:08:57.923Z,100942.47
2023-03-19T23:11:24.673Z,100938.38
2023-03-19T23:13:51.818Z,100939.03
2023-03-19T23:16:24.648Z,100939.47
2023-03-19T23:18:51.956Z,100935.94
2023-03-19T23:21:20.078Z,100937.00
2023-03-19T23:23:46.885Z,100935.94
2023-03-19T23:26:37.158Z,100938.41
2023-03-19T23:29:06.114Z,100941.09
2023-03-19T23:31:34.727Z,100931.47
2023-03-19T23:34:01.630Z,100940.56
2023-03-19T23:36:28.450Z,100940.97
2023-03-19T23:38:56.487Z,100939.31
2023-03-19T23:41:26.808Z,100941.16
2023-03-19T23:43:54.922Z,100942.03
2023-03-19T23:46:22.180Z,100937.28
2023-03-19T23:48:53.236Z,100948.38
2023-03-19T23:51:21.314Z,100949.19
2023-03-19T23:53:48.292Z,100962.69
2023-03-19T23:56:27.649Z,100956.28
